sensor_id;sensor_type;location;lat;lon;timestamp;pressure;altitude;pressure_sealevel;temperature;humidity
75063;BME280;63981;51.052;13.754;2023-08-24T00:00:59;100717.69;;;19.11;69.89
75063;BME280;63981;51.052;13.754;2023-08-24T00:03:26;100715.19;;;19.10;69.66
75063;BME280;63981;51.052;13.754;2023-08-24T00:05:52;100720.66;;;19.08;69.66
75063;BME280;63981;51.052;13.754;2023-08-24T00:08:18;100726.31;;;19.05;69.50
75063;BME280;63981;51.052;13.754;2023-08-24T00:10:44;100722.94;;;19.03;70.08
75063;BME280;63981;51.052;13.754;2023-08-24T00:13:14;100731.22;;;19.00;70.58
75063;BME280;63981;51.052;13.754;2023-08-24T00:15:41;100733.34;;;18.97;70.19
75063;BME280;63981;51.052;13.754;2023-08-24T00:18:07;100731.94;;;18.93;70.77
75063;BME280;63981;51.052;13.754;2023-08-24T00:20:33;100725.06;;;18.90;70.74
75063;BME280;63981;51.052;13.754;2023-08-24T00:23:00;100728.84;;;18.88;70.86
75063;BME280;63981;51.052;13.754;2023-08-24T00:25:26;100729.00;;;18.86;70.88
75063;BME280;63981;51.052;13.754;2023-08-24T00:27:53;100718.75;;;18.81;70.53
75063;BME280;63981;51.052;13.754;2023-08-24T00:30:19;100721.81;;;18.86;70.71
75063;BME280;63981;51.052;13.754;2023-08-24T00:32:46;100717.47;;;18.85;70.76
75063;BME280;63981;51.052;13.754;2023-08-24T00:35:12;100717.63;;;18.84;70.56
75063;BME280;63981;51.052;13.754;2023-08-24T00:37:39;100722.13;;;18.83;70.84
75063;BME280;63981;51.052;13.754;2023-08-24T00:40:06;100721.41;;;18.81;71.02
75063;BME280;63981;51.052;13.754;2023-08-24T00:42:40;100722.97;;;18.74;71.05
75063;BME280;63981;51.052;13.754;2023-08-24T00:45:07;100727.19;;;18.77;71.36
75063;BME280;63981;51.052;13.754;2023-08-24T00:47:36;100722.97;;;18.74;71.79
75063;BME280;63981;51.052;13.754;2023-08-24T00:50:03;100718.91;;;18.70;71.18
75063;BME280;63981;51.052;13.754;2023-08-24T00:52:31;100722.69;;;18.68;71.52
75063;BME280;63981;51.052;13.754;2023-08-24T00:54:59;100723.97;;;18.64;71.67
75063;BME280;63981;51.052;13.754;2023-08-24T00:57:27;100724.09;;;18.62;71.74
75063;BME280;63981;51.052;13.754;2023-08-24T00:59:54;100729.31;;;18.64;72.46
75063;BME280;63981;51.052;13.754;2023-08-24T01:02:20;100719.59;;;18.63;72.60
75063;BME280;63981;51.052;13.754;2023-08-24T01:04:47;100729.00;;;18.57;71.92
75063;BME280;63981;51.052;13.754;2023-08-24T01:07:14;100727.59;;;18.53;72.74
75063;BME280;63981;51.052;13.754;2023-08-24T01:09:40;100724.22;;;18.51;72.24
75063;BME280;63981;51.052;13.754;2023-08-24T01:15:15;100714.81;;;18.37;72.84
75063;BME280;63981;51.052;13.754;2023-08-24T01:17:43;100706.78;;;18.37;73.24
75063;BME280;63981;51.052;13.754;2023-08-24T01:20:10;100720.69;;;18.41;72.65
75063;BME280;63981;51.052;13.754;2023-08-24T01:22:58;100716.19;;;18.41;73.57
75063;BME280;63981;51.052;13.754;2023-08-24T01:25:51;100718.47;;;18.36;73.76
75063;BME280;63981;51.052;13.754;2023-08-24T01:28:18;100717.03;;;18.32;73.74
75063;BME280;63981;51.052;13.754;2023-08-24T01:30:46;100706.94;;;18.26;73.73
75063;BME280;63981;51.052;13.754;2023-08-24T01:33:13;100705.63;;;18.20;74.03
75063;BME280;63981;51.052;13.754;2023-08-24T01:35:39;100706.91;;;18.16;73.96
75063;BME280;63981;51.052;13.754;2023-08-24T01:38:06;100709.84;;;18.13;73.93
75063;BME280;63981;51.052;13.754;2023-08-24T01:40:54;100715.19;;;18.13;74.52
75063;BME280;63981;51.052;13.754;2023-08-24T01:43:29;100711.53;;;18.14;74.26
75063;BME280;63981;51.052;13.754;2023-08-24T01:45:57;100712.66;;;18.12;74.10
75063;BME280;63981;51.052;13.754;2023-08-24T01:48:24;100707.88;;;18.06;74.38
75063;BME280;63981;51.052;13.754;2023-08-24T01:50:51;100705.06;;;17.97;74.71
75063;BME280;63981;51.052;13.754;2023-08-24T01:53:17;100718.66;;;17.85;75.28
75063;BME280;63981;51.052;13.754;2023-08-24T01:55:45;100704.44;;;17.75;75.43
75063;BME280;63981;51.052;13.754;2023-08-24T01:58:11;100707.63;;;17.68;75.94
75063;BME280;63981;51.052;13.754;2023-08-24T02:00:37;100714.31;;;17.63;75.32
75063;BME280;63981;51.052;13.754;2023-08-24T02:03:04;100707.59;;;17.59;75.40
75063;BME280;63981;51.052;13.754;2023-08-24T02:05:30;100707.13;;;17.54;75.01
75063;BME280;63981;51.052;13.754;2023-08-24T02:07:56;100712.88;;;17.49;75.94
75063;BME280;63981;51.052;13.754;2023-08-24T02:10:23;100706.13;;;17.45;76.57
75063;BME280;63981;51.052;13.754;2023-08-24T02:12:49;100708.19;;;17.42;76.17
75063;BME280;63981;51.052;13.754;2023-08-24T02:15:15;100707.22;;;17.43;75.65
75063;BME280;63981;51.052;13.754;2023-08-24T02:17:41;100703.31;;;17.47;76.38
75063;BME280;63981;51.052;13.754;2023-08-24T02:20:08;100694.47;;;17.46;76.95
75063;BME280;63981;51.052;13.754;2023-08-24T02:22:38;100695.13;;;17.38;76.51
75063;BME280;63981;51.052;13.754;2023-08-24T02:25:09;100705.66;;;17.40;76.49
75063;BME280;63981;51.052;13.754;2023-08-24T02:27:35;100702.72;;;17.33;76.52
75063;BME280;63981;51.052;13.754;2023-08-24T02:30:01;100697.38;;;17.33;76.52
75063;BME280;63981;51.052;13.754;2023-08-24T02:32:28;100701.03;;;17.32;76.31
75063;BME280;63981;51.052;13.754;2023-08-24T02:34:54;100706.34;;;17.32;77.03
75063;BME280;63981;51.052;13.754;2023-08-24T02:37:20;100696.91;;;17.28;76.21
75063;BME280;63981;51.052;13.754;2023-08-24T02:39:47;100704.91;;;17.28;76.58
75063;BME280;63981;51.052;13.754;2023-08-24T02:42:13;100692.97;;;17.23;76.81
75063;BME280;63981;51.052;13.754;2023-08-24T02:44:39;100688.34;;;17.25;76.77
75063;BME280;63981;51.052;13.754;2023-08-24T02:47:05;100697.88;;;17.27;77.20
75063;BME280;63981;51.052;13.754;2023-08-24T02:49:31;100699.84;;;17.25;77.11
75063;BME280;63981;51.052;13.754;2023-08-24T02:51:57;100702.91;;;17.21;77.05
75063;BME280;63981;51.052;13.754;2023-08-24T02:54:23;100697.84;;;17.18;76.58
75063;BME280;63981;51.052;13.754;2023-08-24T02:56:49;100699.09;;;17.14;77.26
75063;BME280;63981;51.052;13.754;2023-08-24T02:59:15;100696.28;;;17.15;77.56
75063;BME280;63981;51.052;13.754;2023-08-24T03:01:41;100692.78;;;17.15;77.07
75063;BME280;63981;51.052;13.754;2023-08-24T03:04:09;100692.06;;;17.13;76.50
75063;BME280;63981;51.052;13.754;2023-08-24T03:06:35;100690.38;;;17.12;76.67
75063;BME280;63981;51.052;13.754;2023-08-24T03:09:01;100693.06;;;17.12;77.18
75063;BME280;63981;51.052;13.754;2023-08-24T03:11:30;100699.22;;;17.12;76.92
75063;BME280;63981;51.052;13.754;2023-08-24T03:13:56;100688.19;;;16.96;77.15
75063;BME280;63981;51.052;13.754;2023-08-24T03:16:22;100702.22;;;16.98;77.32
75063;BME280;63981;51.052;13.754;2023-08-24T03:18:49;100683.91;;;16.84;77.06
75063;BME280;63981;51.052;13.754;2023-08-24T03:21:17;100694.03;;;16.90;77.52
75063;BME280;63981;51.052;13.754;2023-08-24T03:23:43;100696.25;;;16.85;77.57
75063;BME280;63981;51.052;13.754;2023-08-24T03:26:09;100695.53;;;16.83;77.79
75063;BME280;63981;51.052;13.754;2023-08-24T03:28:35;100700.16;;;16.80;77.35
75063;BME280;63981;51.052;13.754;2023-08-24T03:31:01;100693.00;;;16.81;77.19
75063;BME280;63981;51.052;13.754;2023-08-24T03:33:28;100695.19;;;16.76;78.20
75063;BME280;63981;51.052;13.754;2023-08-24T03:35:54;100690.41;;;16.70;77.44
75063;BME280;63981;51.052;13.754;2023-08-24T03:38:20;100693.41;;;16.65;78.23
75063;BME280;63981;51.052;13.754;2023-08-24T03:40:46;100698.16;;;16.62;78.30
75063;BME280;63981;51.052;13.754;2023-08-24T03:43:12;100693.22;;;16.57;78.53
75063;BME280;63981;51.052;13.754;2023-08-24T03:45:39;100689.84;;;16.55;78.82
75063;BME280;63981;51.052;13.754;2023-08-24T03:48:05;100687.06;;;16.57;78.33
75063;BME280;63981;51.052;13.754;2023-08-24T03:50:31;100692.38;;;16.57;78.14
75063;BME280;63981;51.052;13.754;2023-08-24T03:52:57;100702.91;;;16.58;78.39
75063;BME280;63981;51.052;13.754;2023-08-24T03:55:24;100692.50;;;16.55;77.76
75063;BME280;63981;51.052;13.754;2023-08-24T03:57:50;100689.25;;;16.51;78.18
75063;BME280;63981;51.052;13.754;2023-08-24T04:00:16;100695.53;;;16.50;78.53
75063;BME280;63981;51.052;13.754;2023-08-24T04:02:43;100697.75;;;16.45;78.70
75063;BME280;63981;51.052;13.754;2023-08-24T04:05:13;100701.53;;;16.43;79.14
75063;BME280;63981;51.052;13.754;2023-08-24T04:07:41;100695.84;;;16.36;78.67
75063;BME280;63981;51.052;13.754;2023-08-24T04:10:09;100683.91;;;16.31;79.19
75063;BME280;63981;51.052;13.754;2023-08-24T04:12:35;100693.06;;;16.38;78.71
75063;BME280;63981;51.052;13.754;2023-08-24T04:15:02;100672.28;;;16.32;78.93
75063;BME280;63981;51.052;13.754;2023-08-24T04:17:28;100693.53;;;16.43;78.62
75063;BME280;63981;51.052;13.754;2023-08-24T04:19:54;100686.13;;;16.46;78.21
75063;BME280;63981;51.052;13.754;2023-08-24T04:22:20;100682.22;;;16.50;78.65
75063;BME280;63981;51.052;13.754;2023-08-24T04:24:46;100692.50;;;16.55;78.05
75063;BME280;63981;51.052;13.754;2023-08-24T04:27:12;100688.75;;;16.58;77.79
75063;BME280;63981;51.052;13.754;2023-08-24T04:29:38;100690.44;;;16.59;77.88
75063;BME280;63981;51.052;13.754;2023-08-24T04:32:06;100685.94;;;16.59;77.59
75063;BME280;63981;51.052;13.754;2023-08-24T04:34:32;100690.44;;;16.59;77.77
75063;BME280;63981;51.052;13.754;2023-08-24T04:36:58;100690.81;;;16.54;77.85
75063;BME280;63981;51.052;13.754;2023-08-24T04:39:24;100687.56;;;16.50;78.39
75063;BME280;63981;51.052;13.754;2023-08-24T04:41:50;100691.00;;;16.41;78.41
75063;BME280;63981;51.052;13.754;2023-08-24T04:44:16;100697.03;;;16.43;77.86
75063;BME280;63981;51.052;13.754;2023-08-24T04:46:42;100682.09;;;16.31;78.28
75063;BME280;63981;51.052;13.754;2023-08-24T04:49:08;100691.63;;;16.34;79.22
75063;BME280;63981;51.052;13.754;2023-08-24T04:51:35;100701.75;;;16.40;78.77
75063;BME280;63981;51.052;13.754;2023-08-24T04:54:01;100697.53;;;16.37;78.93
75063;BME280;63981;51.052;13.754;2023-08-24T04:56:28;100703.56;;;16.39;78.89
75063;BME280;63981;51.052;13.754;2023-08-24T04:58:58;100704.41;;;16.40;78.96
75063;BME280;63981;51.052;13.754;2023-08-24T05:01:26;100697.53;;;16.37;78.85
75063;BME280;63981;51.052;13.754;2023-08-24T05:03:53;100704.19;;;16.43;78.56
75063;BME280;63981;51.052;13.754;2023-08-24T05:06:20;100705.34;;;16.50;78.19
75063;BME280;63981;51.052;13.754;2023-08-24T05:08:46;100696.88;;;16.56;77.91
75063;BME280;63981;51.052;13.754;2023-08-24T05:11:20;100703.47;;;16.62;77.87
75063;BME280;63981;51.052;13.754;2023-08-24T05:13:46;100693.09;;;16.59;77.65
75063;BME280;63981;51.052;13.754;2023-08-24T05:16:12;100702.38;;;16.64;77.79
75063;BME280;63981;51.052;13.754;2023-08-24T05:18:39;100698.03;;;16.63;77.67
75063;BME280;63981;51.052;13.754;2023-08-24T05:21:05;100695.88;;;16.68;77.31
75063;BME280;63981;51.052;13.754;2023-08-24T05:23:32;100701.50;;;16.75;77.42
75063;BME280;63981;51.052;13.754;2023-08-24T05:26:00;100697.38;;;16.82;76.93
75063;BME280;63981;51.052;13.754;2023-08-24T05:28:27;100694.75;;;16.92;76.35
75063;BME280;63981;51.052;13.754;2023-08-24T05:30:54;100700.66;;;16.95;76.10
75063;BME280;63981;51.052;13.754;2023-08-24T05:33:21;100700.13;;;17.01;75.55
75063;BME280;63981;51.052;13.754;2023-08-24T05:35:51;100700.84;;;17.03;75.39
75063;BME280;63981;51.052;13.754;2023-08-24T05:38:17;100696.81;;;17.09;75.56
75063;BME280;63981;51.052;13.754;2023-08-24T05:40:46;100688.44;;;17.14;75.21
75063;BME280;63981;51.052;13.754;2023-08-24T05:43:12;100693.94;;;17.22;75.79
75063;BME280;63981;51.052;13.754;2023-08-24T05:45:38;100695.22;;;17.27;75.53
75063;BME280;63981;51.052;13.754;2023-08-24T05:48:10;100685.88;;;17.33;74.42
75063;BME280;63981;51.052;13.754;2023-08-24T05:50:37;100689.81;;;17.38;73.90
75063;BME280;63981;51.052;13.754;2023-08-24T05:53:03;100680.00;;;17.39;74.38
75063;BME280;63981;51.052;13.754;2023-08-24T05:55:29;100686.22;;;17.49;74.19
75063;BME280;63981;51.052;13.754;2023-08-24T05:57:55;100687.34;;;17.56;74.00
75063;BME280;63981;51.052;13.754;2023-08-24T06:00:22;100690.91;;;17.66;73.21
75063;BME280;63981;51.052;13.754;2023-08-24T06:02:48;100686.47;;;17.77;72.94
75063;BME280;63981;51.052;13.754;2023-08-24T06:05:15;100685.66;;;17.86;72.65
75063;BME280;63981;51.052;13.754;2023-08-24T06:07:44;100686.38;;;17.97;72.20
75063;BME280;63981;51.052;13.754;2023-08-24T06:10:11;100687.38;;;18.06;71.85
75063;BME280;63981;51.052;13.754;2023-08-24T06:12:38;100685.25;;;18.10;71.83
75063;BME280;63981;51.052;13.754;2023-08-24T06:15:05;100675.16;;;18.13;71.21
75063;BME280;63981;51.052;13.754;2023-08-24T06:17:33;100682.22;;;18.24;70.98
75063;BME280;63981;51.052;13.754;2023-08-24T06:20:04;100676.44;;;18.28;69.99
75063;BME280;63981;51.052;13.754;2023-08-24T06:22:31;100676.00;;;18.33;70.01
75063;BME280;63981;51.052;13.754;2023-08-24T06:24:57;100673.50;;;18.41;68.97
75063;BME280;63981;51.052;13.754;2023-08-24T06:27:26;100672.50;;;18.52;69.30
75063;BME280;63981;51.052;13.754;2023-08-24T06:29:52;100685.28;;;18.58;69.54
75063;BME280;63981;51.052;13.754;2023-08-24T06:32:18;100672.09;;;18.66;68.59
75063;BME280;63981;51.052;13.754;2023-08-24T06:34:44;100673.50;;;18.70;68.25
75063;BME280;63981;51.052;13.754;2023-08-24T06:37:11;100673.94;;;18.75;68.45
75063;BME280;63981;51.052;13.754;2023-08-24T06:39:37;100677.00;;;18.90;67.62
75063;BME280;63981;51.052;13.754;2023-08-24T06:42:03;100677.38;;;19.05;67.26
75063;BME280;63981;51.052;13.754;2023-08-24T06:44:30;100672.41;;;19.20;66.87
75063;BME280;63981;51.052;13.754;2023-08-24T06:46:56;100669.78;;;19.37;66.90
75063;BME280;63981;51.052;13.754;2023-08-24T06:49:22;100661.03;;;19.55;66.39
75063;BME280;63981;51.052;13.754;2023-08-24T06:51:48;100660.22;;;19.72;66.03
75063;BME280;63981;51.052;13.754;2023-08-24T06:54:14;100667.16;;;19.92;66.20
75063;BME280;63981;51.052;13.754;2023-08-24T06:56:41;100666.16;;;20.11;64.71
75063;BME280;63981;51.052;13.754;2023-08-24T06:59:08;100668.97;;;20.27;63.31
75063;BME280;63981;51.052;13.754;2023-08-24T07:01:35;100667.06;;;20.38;63.06
75063;BME280;63981;51.052;13.754;2023-08-24T07:04:01;100665.41;;;20.54;62.24
75063;BME280;63981;51.052;13.754;2023-08-24T07:06:27;100664.00;;;20.68;62.69
75063;BME280;63981;51.052;13.754;2023-08-24T07:08:54;100664.50;;;20.89;61.88
75063;BME280;63981;51.052;13.754;2023-08-24T07:11:20;100664.44;;;21.07;60.58
75063;BME280;63981;51.052;13.754;2023-08-24T07:13:46;100660.56;;;21.28;60.55
75063;BME280;63981;51.052;13.754;2023-08-24T07:16:14;100667.69;;;21.45;58.79
75063;BME280;63981;51.052;13.754;2023-08-24T07:18:40;100655.81;;;21.56;58.57
75063;BME280;63981;51.052;13.754;2023-08-24T07:21:06;100655.88;;;21.72;57.60
75063;BME280;63981;51.052;13.754;2023-08-24T07:23:32;100648.56;;;21.90;58.15
75063;BME280;63981;51.052;13.754;2023-08-24T07:25:58;100650.78;;;22.11;57.75
75063;BME280;63981;51.052;13.754;2023-08-24T07:28:24;100643.59;;;22.36;57.14
75063;BME280;63981;51.052;13.754;2023-08-24T07:30:50;100645.78;;;22.57;56.70
75063;BME280;63981;51.052;13.754;2023-08-24T07:33:21;100645.25;;;22.78;55.59
75063;BME280;63981;51.052;13.754;2023-08-24T07:35:48;100645.06;;;23.04;55.01
75063;BME280;63981;51.052;13.754;2023-08-24T07:38:14;100639.97;;;23.25;55.21
75063;BME280;63981;51.052;13.754;2023-08-24T07:40:40;100634.69;;;23.40;53.56
75063;BME280;63981;51.052;13.754;2023-08-24T07:43:06;100633.31;;;23.60;53.90
75063;BME280;63981;51.052;13.754;2023-08-24T07:45:33;100643.31;;;23.74;52.79
75063;BME280;63981;51.052;13.754;2023-08-24T07:47:59;100648.13;;;23.87;52.46
75063;BME280;63981;51.052;13.754;2023-08-24T07:50:25;100631.56;;;23.98;51.71
75063;BME280;63981;51.052;13.754;2023-08-24T07:52:52;100642.16;;;24.23;51.88
75063;BME280;63981;51.052;13.754;2023-08-24T07:55:18;100642.34;;;24.44;51.54
75063;BME280;63981;51.052;13.754;2023-08-24T07:57:44;100643.44;;;24.73;50.70
75063;BME280;63981;51.052;13.754;2023-08-24T08:00:11;100638.56;;;24.91;51.28
75063;BME280;63981;51.052;13.754;2023-08-24T08:02:40;100638.66;;;25.12;51.40
75063;BME280;63981;51.052;13.754;2023-08-24T08:05:06;100638.56;;;25.35;49.16
75063;BME280;63981;51.052;13.754;2023-08-24T08:07:38;100633.59;;;25.68;48.59
75063;BME280;63981;51.052;13.754;2023-08-24T08:10:05;100625.75;;;25.88;47.80
75063;BME280;63981;51.052;13.754;2023-08-24T08:12:35;100637.16;;;26.05;46.57
75063;BME280;63981;51.052;13.754;2023-08-24T08:15:02;100635.47;;;26.25;46.55
75063;BME280;63981;51.052;13.754;2023-08-24T08:17:28;100626.16;;;26.49;46.35
75063;BME280;63981;51.052;13.754;2023-08-24T08:19:58;100623.81;;;26.67;45.61
75063;BME280;63981;51.052;13.754;2023-08-24T08:22:25;100622.56;;;26.98;45.13
75063;BME280;63981;51.052;13.754;2023-08-24T08:24:53;100632.56;;;27.32;44.04
75063;BME280;63981;51.052;13.754;2023-08-24T08:27:20;100623.72;;;27.51;43.90
75063;BME280;63981;51.052;13.754;2023-08-24T08:29:47;100619.59;;;27.62;42.98
75063;BME280;63981;51.052;13.754;2023-08-24T08:32:13;100619.00;;;27.73;42.09
75063;BME280;63981;51.052;13.754;2023-08-24T08:34:39;100611.97;;;27.92;42.53
75063;BME280;63981;51.052;13.754;2023-08-24T08:37:05;100618.88;;;28.08;42.74
75063;BME280;63981;51.052;13.754;2023-08-24T08:39:32;100611.63;;;28.61;41.14
75063;BME280;63981;51.052;13.754;2023-08-24T08:41:58;100618.69;;;29.08;40.50
75063;BME280;63981;51.052;13.754;2023-08-24T08:44:29;100607.00;;;29.01;39.13
75063;BME280;63981;51.052;13.754;2023-08-24T08:46:57;100602.03;;;28.92;39.17
75063;BME280;63981;51.052;13.754;2023-08-24T08:49:23;100605.75;;;28.77;39.83
75063;BME280;63981;51.052;13.754;2023-08-24T08:51:49;100598.28;;;28.79;39.10
75063;BME280;63981;51.052;13.754;2023-08-24T08:54:17;100603.47;;;28.74;41.30
75063;BME280;63981;51.052;13.754;2023-08-24T08:56:43;100603.88;;;28.85;40.54
75063;BME280;63981;51.052;13.754;2023-08-24T08:59:13;100596.19;;;28.95;39.23
75063;BME280;63981;51.052;13.754;2023-08-24T09:01:41;100595.97;;;28.96;38.46
75063;BME280;63981;51.052;13.754;2023-08-24T09:04:07;100592.38;;;29.09;39.10
75063;BME280;63981;51.052;13.754;2023-08-24T09:06:34;100579.41;;;29.18;39.06
75063;BME280;63981;51.052;13.754;2023-08-24T09:09:01;100576.19;;;29.34;37.53
75063;BME280;63981;51.052;13.754;2023-08-24T09:11:27;100565.91;;;29.43;38.69
75063;BME280;63981;51.052;13.754;2023-08-24T09:13:53;100568.34;;;29.64;37.41
75063;BME280;63981;51.052;13.754;2023-08-24T09:16:19;100565.22;;;29.92;37.65
75063;BME280;63981;51.052;13.754;2023-08-24T09:18:46;100558.03;;;30.04;37.56
75063;BME280;63981;51.052;13.754;2023-08-24T09:21:14;100559.72;;;30.05;37.54
75063;BME280;63981;51.052;13.754;2023-08-24T09:23:45;100559.91;;;30.04;36.28
75063;BME280;63981;51.052;13.754;2023-08-24T09:26:11;100557.50;;;29.95;35.41
75063;BME280;63981;51.052;13.754;2023-08-24T09:28:38;100550.94;;;30.03;36.80
75063;BME280;63981;51.052;13.754;2023-08-24T09:31:05;100542.75;;;30.10;36.03
75063;BME280;63981;51.052;13.754;2023-08-24T09:33:31;100540.81;;;30.17;34.89
75063;BME280;63981;51.052;13.754;2023-08-24T09:35:57;100542.03;;;30.21;35.26
75063;BME280;63981;51.052;13.754;2023-08-24T09:38:27;100542.34;;;30.31;34.23
75063;BME280;63981;51.052;13.754;2023-08-24T09:40:55;100533.81;;;30.28;35.16
75063;BME280;63981;51.052;13.754;2023-08-24T09:43:22;100535.22;;;30.37;31.89
75063;BME280;63981;51.052;13.754;2023-08-24T09:45:52;100530.16;;;30.15;32.28
75063;BME280;63981;51.052;13.754;2023-08-24T09:48:19;100521.91;;;30.47;33.61
75063;BME280;63981;51.052;13.754;2023-08-24T09:50:47;100511.84;;;30.91;31.90
75063;BME280;63981;51.052;13.754;2023-08-24T09:53:20;100512.41;;;31.59;31.36
75063;BME280;63981;51.052;13.754;2023-08-24T09:55:54;100499.16;;;32.40;28.44
75063;BME280;63981;51.052;13.754;2023-08-24T09:58:22;100485.25;;;33.17;28.10
75063;BME280;63981;51.052;13.754;2023-08-24T10:00:49;100479.47;;;33.58;27.48
75063;BME280;63981;51.052;13.754;2023-08-24T10:03:18;100478.00;;;33.67;27.13
75063;BME280;63981;51.052;13.754;2023-08-24T10:05:52;100483.78;;;33.54;27.80
75063;BME280;63981;51.052;13.754;2023-08-24T10:08:21;100485.25;;;33.45;27.56
75063;BME280;63981;51.052;13.754;2023-08-24T10:10:53;100489.50;;;32.96;29.98
75063;BME280;63981;51.052;13.754;2023-08-24T10:13:43;100491.34;;;32.32;30.94
75063;BME280;63981;51.052;13.754;2023-08-24T10:16:14;100488.44;;;32.15;32.43
75063;BME280;63981;51.052;13.754;2023-08-24T10:18:43;100483.97;;;32.09;30.28
75063;BME280;63981;51.052;13.754;2023-08-24T10:21:09;100489.41;;;32.09;31.13
75063;BME280;63981;51.052;13.754;2023-08-24T10:23:37;100488.78;;;31.83;30.31
75063;BME280;63981;51.052;13.754;2023-08-24T10:26:06;100486.22;;;31.58;31.45
75063;BME280;63981;51.052;13.754;2023-08-24T10:28:34;100492.09;;;31.74;34.46
75063;BME280;63981;51.052;13.754;2023-08-24T10:31:01;100488.22;;;31.93;33.42
75063;BME280;63981;51.052;13.754;2023-08-24T10:33:29;100484.19;;;31.95;31.39
75063;BME280;63981;51.052;13.754;2023-08-24T10:35:57;100482.06;;;32.09;30.53
75063;BME280;63981;51.052;13.754;2023-08-24T10:38:27;100470.66;;;32.01;30.04
75063;BME280;63981;51.052;13.754;2023-08-24T10:41:01;100469.59;;;31.78;30.07
75063;BME280;63981;51.052;13.754;2023-08-24T10:43:28;100463.25;;;31.66;31.93
75063;BME280;63981;51.052;13.754;2023-08-24T10:46:03;100470.66;;;31.89;30.23
75063;BME280;63981;51.052;13.754;2023-08-24T10:51:23;100470.53;;;32.66;30.25
75063;BME280;63981;51.052;13.754;2023-08-24T10:56:19;100457.00;;;33.11;29.90
75063;BME280;63981;51.052;13.754;2023-08-24T10:58:46;100449.47;;;33.47;29.42
75063;BME280;63981;51.052;13.754;2023-08-24T11:03:58;100459.16;;;33.09;29.75
75063;BME280;63981;51.052;13.754;2023-08-24T11:06:25;100453.53;;;32.75;29.89
75063;BME280;63981;51.052;13.754;2023-08-24T11:09:06;100440.91;;;32.22;31.96
75063;BME280;63981;51.052;13.754;2023-08-24T11:11:39;100446.78;;;31.73;31.55
75063;BME280;63981;51.052;13.754;2023-08-24T11:14:32;100447.31;;;31.39;34.11
75063;BME280;63981;51.052;13.754;2023-08-24T11:17:22;100450.50;;;31.18;31.52
75063;BME280;63981;51.052;13.754;2023-08-24T11:19:50;100440.06;;;31.33;33.13
75063;BME280;63981;51.052;13.754;2023-08-24T11:22:19;100429.19;;;31.45;32.34
75063;BME280;63981;51.052;13.754;2023-08-24T11:24:47;100420.97;;;31.87;32.32
75063;BME280;63981;51.052;13.754;2023-08-24T11:27:13;100419.31;;;32.44;30.45
75063;BME280;63981;51.052;13.754;2023-08-24T11:29:40;100412.53;;;32.47;30.07
75063;BME280;63981;51.052;13.754;2023-08-24T11:32:06;100411.47;;;32.24;31.40
75063;BME280;63981;51.052;13.754;2023-08-24T11:34:34;100407.53;;;32.55;29.34
75063;BME280;63981;51.052;13.754;2023-08-24T11:37:00;100398.97;;;33.66;27.78
75063;BME280;63981;51.052;13.754;2023-08-24T11:39:26;100390.34;;;35.22;26.76
75063;BME280;63981;51.052;13.754;2023-08-24T11:42:02;100391.81;;;35.99;25.05
75063;BME280;63981;51.052;13.754;2023-08-24T11:44:29;100372.19;;;36.27;24.10
75063;BME280;63981;51.052;13.754;2023-08-24T11:46:58;100356.97;;;35.99;25.16
75063;BME280;63981;51.052;13.754;2023-08-24T11:49:25;100352.63;;;35.34;25.86
75063;BME280;63981;51.052;13.754;2023-08-24T11:51:51;100336.25;;;34.85;25.26
75063;BME280;63981;51.052;13.754;2023-08-24T11:54:21;100336.19;;;34.53;26.17
75063;BME280;63981;51.052;13.754;2023-08-24T11:56:47;100314.59;;;33.91;26.35
75063;BME280;63981;51.052;13.754;2023-08-24T11:59:13;100310.06;;;33.47;27.51
75063;BME280;63981;51.052;13.754;2023-08-24T12:01:43;100319.91;;;33.14;28.06
75063;BME280;63981;51.052;13.754;2023-08-24T12:04:09;100295.53;;;32.67;29.09
75063;BME280;63981;51.052;13.754;2023-08-24T12:06:35;100305.97;;;32.42;29.55
75063;BME280;63981;51.052;13.754;2023-08-24T12:09:04;100306.91;;;32.07;29.18
75063;BME280;63981;51.052;13.754;2023-08-24T12:11:35;100299.31;;;31.51;29.34
75063;BME280;63981;51.052;13.754;2023-08-24T12:14:02;100291.69;;;31.06;31.37
75063;BME280;63981;51.052;13.754;2023-08-24T12:16:31;100288.31;;;30.80;31.21
75063;BME280;63981;51.052;13.754;2023-08-24T12:18:59;100296.34;;;30.57;31.23
75063;BME280;63981;51.052;13.754;2023-08-24T12:21:26;100296.84;;;30.54;32.57
75063;BME280;63981;51.052;13.754;2023-08-24T12:24:05;100298.31;;;30.68;33.09
75063;BME280;63981;51.052;13.754;2023-08-24T12:26:32;100302.00;;;31.16;32.71
75063;BME280;63981;51.052;13.754;2023-08-24T12:29:03;100298.75;;;31.72;30.49
75063;BME280;63981;51.052;13.754;2023-08-24T12:31:32;100311.06;;;31.98;30.40
75063;BME280;63981;51.052;13.754;2023-08-24T12:34:03;100313.13;;;32.43;29.91
75063;BME280;63981;51.052;13.754;2023-08-24T12:36:33;100331.81;;;32.51;29.32
75063;BME280;63981;51.052;13.754;2023-08-24T12:39:02;100332.97;;;32.15;30.15
75063;BME280;63981;51.052;13.754;2023-08-24T12:41:33;100334.19;;;31.72;30.97
75063;BME280;63981;51.052;13.754;2023-08-24T12:43:59;100331.22;;;31.38;32.18
75063;BME280;63981;51.052;13.754;2023-08-24T12:46:36;100315.09;;;31.25;33.16
75063;BME280;63981;51.052;13.754;2023-08-24T12:49:02;100303.81;;;31.22;34.49
75063;BME280;63981;51.052;13.754;2023-08-24T12:51:28;100306.19;;;31.30;32.54
75063;BME280;63981;51.052;13.754;2023-08-24T12:53:54;100301.69;;;31.24;32.84